Аэропорт: Братск. Братск

ICAO: UIBB

METAR:
2020-10-19 15:30:00
UIBB 191530Z AUTO 28008MPS 250V320 9999 // ///058/// M04/M09 Q1022 RMK QFE723/0964
METAR:
2020-10-19 13:12:00
TAF AMD UIBB 191312Z 1913/2012 26006G15MPS 6000 -SHSN BKN016CB TEMPO 1913/2003 1300 SHSN